createdAt,value
2018-11-22T12:18:06.044Z,56.49
2018-11-22T12:20:33.723Z,56.80
2018-11-22T12:23:01.474Z,56.90
2018-11-22T12:25:30.060Z,56.63
2018-11-22T12:27:59.233Z,56.25
2018-11-22T12:30:28.341Z,56.06
2018-11-22T12:32:58.183Z,56.64
2018-11-22T12:35:31.786Z,56.50
2018-11-22T12:38:05.385Z,57.23
2018-11-22T12:40:34.244Z,56.89
2018-11-22T12:43:02.770Z,57.55
2018-11-22T12:45:31.699Z,56.61
2018-11-22T12:47:59.475Z,57.09
2018-11-22T12:50:27.216Z,56.88
2018-11-22T12:52:55.013Z,56.83
2018-11-22T12:55:22.728Z,56.66
2018-11-22T12:57:50.440Z,56.80
2018-11-22T13:00:18.396Z,56.94
2018-11-22T13:02:46.151Z,57.33
2018-11-22T13:05:15.316Z,56.94
2018-11-22T13:07:43.025Z,57.50
2018-11-22T13:10:12.531Z,57.33
2018-11-22T13:12:41.127Z,57.91
2018-11-22T13:15:11.353Z,57.45
2018-11-22T13:17:39.204Z,57.80
2018-11-22T13:20:09.511Z,58.63
2018-11-22T13:22:37.522Z,58.40
2018-11-22T13:25:08.148Z,58.18
2018-11-22T13:27:35.842Z,57.57
2018-11-22T13:30:07.319Z,57.39
2018-11-22T13:32:35.010Z,58.67
2018-11-22T13:35:02.773Z,58.14
2018-11-22T13:37:31.064Z,58.86
2018-11-22T13:39:58.842Z,58.15
2018-11-22T13:42:26.522Z,58.48
2018-11-22T13:44:54.284Z,58.41
2018-11-22T13:47:22.004Z,58.44
2018-11-22T13:49:49.747Z,58.97
2018-11-22T13:52:17.440Z,59.40
2018-11-22T13:54:45.282Z,59.55
2018-11-22T13:57:13.009Z,58.79
2018-11-22T13:59:41.371Z,59.88
2018-11-22T14:02:09.185Z,59.77
2018-11-22T14:04:36.894Z,59.70
2018-11-22T14:07:04.846Z,59.46
2018-11-22T14:09:32.531Z,59.46
2018-11-22T14:12:00.235Z,60.06
2018-11-22T14:14:28.861Z,60.19
2018-11-22T14:16:56.611Z,60.34
2018-11-22T14:19:24.342Z,60.32
2018-11-22T14:21:52.041Z,60.66
2018-11-22T14:24:19.800Z,60.83
2018-11-22T14:26:47.464Z,61.12
2018-11-22T14:29:15.119Z,60.49
2018-11-22T14:31:42.929Z,60.80
2018-11-22T14:34:11.353Z,61.21
2018-11-22T14:36:39.064Z,60.82
2018-11-22T14:39:07.137Z,61.32
2018-11-22T14:41:34.939Z,61.24
2018-11-22T14:44:02.699Z,61.39
2018-11-22T14:46:30.454Z,62.08
2018-11-22T14:49:02.448Z,61.46
2018-11-22T14:51:38.188Z,61.81
2018-11-22T14:54:06.186Z,62.25
2018-11-22T14:56:34.533Z,62.06
2018-11-22T14:59:02.249Z,62.29
2018-11-22T15:01:29.969Z,61.78
2018-11-22T15:03:57.740Z,62.26
2018-11-22T15:06:25.416Z,61.73
2018-11-22T15:08:53.125Z,61.98
2018-11-22T15:11:20.844Z,62.06
2018-11-22T15:13:48.504Z,61.79
2018-11-22T15:16:16.193Z,61.84
2018-11-22T15:18:43.914Z,61.91
2018-11-22T15:21:11.667Z,61.60
2018-11-22T15:23:39.368Z,62.35
2018-11-22T15:26:07.958Z,62.03
2018-11-22T15:28:35.758Z,62.15
2018-11-22T15:31:04.535Z,62.72
2018-11-22T15:33:32.285Z,63.15
2018-11-22T15:35:59.992Z,62.84
2018-11-22T15:38:27.654Z,62.96
2018-11-22T15:40:55.403Z,62.74
2018-11-22T15:43:23.043Z,62.59
2018-11-22T15:45:50.795Z,63.38
2018-11-22T15:48:18.460Z,62.93
2018-11-22T15:50:47.160Z,62.58
2018-11-22T15:53:15.721Z,63.03
2018-11-22T15:55:43.443Z,63.20
2018-11-22T15:58:11.158Z,63.11
2018-11-22T16:00:39.572Z,62.97
2018-11-22T16:03:08.029Z,63.06
2018-11-22T16:05:35.701Z,62.78
2018-11-22T16:08:03.492Z,63.49
2018-11-22T16:10:32.958Z,63.44
2018-11-22T16:13:06.014Z,62.56
2018-11-22T16:15:39.613Z,63.51
2018-11-22T16:18:07.648Z,63.29
2018-11-22T16:20:36.286Z,63.41
2018-11-22T16:23:04.547Z,62.99
2018-11-22T16:25:33.444Z,63.05
2018-11-22T16:28:02.841Z,62.97
2018-11-22T16:30:31.555Z,63.02
2018-11-22T16:32:59.330Z,62.93
2018-11-22T16:35:33.277Z,62.85
2018-11-22T16:37:56.984Z,62.99
2018-11-22T16:40:26.186Z,62.84
2018-11-22T16:42:54.964Z,63.64
2018-11-22T16:45:24.130Z,63.15
2018-11-22T16:47:54.351Z,62.50
2018-11-22T16:50:24.493Z,63.05
2018-11-22T16:52:53.010Z,63.18
2018-11-22T16:55:22.856Z,63.32
2018-11-22T16:57:55.299Z,63.25
2018-11-22T17:00:32.293Z,63.22
2018-11-22T17:03:03.275Z,63.33
2018-11-22T17:05:31.180Z,63.07
2018-11-22T17:07:59.664Z,63.08
2018-11-22T17:10:28.744Z,63.13
2018-11-22T17:12:58.304Z,63.94
2018-11-22T17:15:27.542Z,63.31
2018-11-22T17:17:57.000Z,62.81
2018-11-22T17:20:26.344Z,63.62
2018-11-22T17:22:54.880Z,62.96
2018-11-22T17:25:25.820Z,63.25
2018-11-22T17:27:56.139Z,63.23
2018-11-22T17:30:27.689Z,63.22
2018-11-22T17:32:55.512Z,62.86
2018-11-22T17:35:24.428Z,62.54
2018-11-22T17:37:53.947Z,63.36
2018-11-22T17:40:24.361Z,63.18
2018-11-22T17:42:52.932Z,63.30
2018-11-22T17:45:26.844Z,63.29
2018-11-22T17:47:58.238Z,63.09
2018-11-22T17:50:28.395Z,63.45
2018-11-22T17:52:59.050Z,63.15
2018-11-22T17:55:28.554Z,63.14
2018-11-22T17:57:56.292Z,64.08
2018-11-22T18:00:26.387Z,64.10
2018-11-22T18:02:55.481Z,63.60
2018-11-22T18:05:27.245Z,63.49
2018-11-22T18:07:52.081Z,63.57
2018-11-22T18:10:23.233Z,63.26
2018-11-22T18:12:52.556Z,63.97
2018-11-22T18:15:21.964Z,63.42
2018-11-22T18:17:50.441Z,63.17
2018-11-22T18:20:20.619Z,63.13
2018-11-22T18:22:49.369Z,63.29
2018-11-22T18:25:21.475Z,63.52
2018-11-22T18:27:49.263Z,63.51
2018-11-22T18:30:23.678Z,63.29
2018-11-22T18:32:53.886Z,63.57
2018-11-22T18:35:21.776Z,62.67
2018-11-22T18:37:49.530Z,63.36
2018-11-22T18:40:20.184Z,62.82
2018-11-22T18:42:48.923Z,62.71
2018-11-22T18:45:22.131Z,62.57
2018-11-22T18:47:55.618Z,62.81
2018-11-22T18:50:24.608Z,63.60
2018-11-22T18:52:54.252Z,63.45
2018-11-22T18:55:22.801Z,63.12
2018-11-22T18:57:50.875Z,62.85
2018-11-22T19:00:23.881Z,62.95
2018-11-22T19:02:53.257Z,63.15
2018-11-22T19:05:21.060Z,62.32
2018-11-22T19:07:49.547Z,62.17
2018-11-22T19:10:21.124Z,62.67
2018-11-22T19:12:49.799Z,63.52
2018-11-22T19:15:19.108Z,63.20
2018-11-22T19:17:47.114Z,63.66
2018-11-22T19:20:20.965Z,62.70
2018-11-22T19:22:49.969Z,62.13
2018-11-22T19:25:18.392Z,62.46
2018-11-22T19:27:46.636Z,62.29
2018-11-22T19:30:18.555Z,62.16
2018-11-22T19:32:47.393Z,62.75
2018-11-22T19:35:18.871Z,63.54
2018-11-22T19:37:48.111Z,63.01
2018-11-22T19:40:18.195Z,63.37
2018-11-22T19:42:47.351Z,63.25
2018-11-22T19:45:16.473Z,62.89
2018-11-22T19:47:44.239Z,63.06
2018-11-22T19:50:15.143Z,63.06
2018-11-22T19:52:43.789Z,63.21
2018-11-22T19:55:14.117Z,63.29
2018-11-22T19:57:42.964Z,63.36
2018-11-22T20:00:12.359Z,62.28
2018-11-22T20:02:41.069Z,62.34
2018-11-22T20:05:10.988Z,61.85
2018-11-22T20:07:39.153Z,62.63
2018-11-22T20:10:11.630Z,62.69
2018-11-22T20:12:39.473Z,62.72
2018-11-22T20:15:07.188Z,62.16
2018-11-22T20:17:35.034Z,61.58
2018-11-22T20:20:03.258Z,62.21
2018-11-22T20:22:31.079Z,62.81
2018-11-22T20:24:58.841Z,63.24
2018-11-22T20:27:27.602Z,62.96
2018-11-22T20:29:55.519Z,63.33
2018-11-22T20:32:23.362Z,63.23
2018-11-22T20:34:51.099Z,63.68
2018-11-22T20:37:18.954Z,63.14
2018-11-22T20:39:46.685Z,63.85
2018-11-22T20:42:14.394Z,63.68
2018-11-22T20:44:42.191Z,63.52
2018-11-22T20:47:10.626Z,62.61
2018-11-22T20:49:38.311Z,63.08
2018-11-22T20:52:06.016Z,63.31
2018-11-22T20:54:33.682Z,63.31
2018-11-22T20:57:01.416Z,63.40
2018-11-22T20:59:29.159Z,62.69
2018-11-22T21:01:57.748Z,62.99
2018-11-22T21:04:25.457Z,62.37
2018-11-22T21:06:53.330Z,62.44
2018-11-22T21:09:21.139Z,62.91
2018-11-22T21:11:49.517Z,63.13
2018-11-22T21:14:17.198Z,62.81
2018-11-22T21:16:47.049Z,63.50
2018-11-22T21:19:14.884Z,63.36
2018-11-22T21:21:43.506Z,63.49
2018-11-22T21:24:11.217Z,63.36
2018-11-22T21:26:40.748Z,63.18
2018-11-22T21:29:10.034Z,63.55
2018-11-22T21:31:37.841Z,63.70
2018-11-22T21:34:05.668Z,63.33
2018-11-22T21:36:34.362Z,63.26
2018-11-22T21:39:03.292Z,63.05
2018-11-22T21:41:31.024Z,62.78
2018-11-22T21:43:58.784Z,63.51
2018-11-22T21:46:30.551Z,63.63
2018-11-22T21:48:59.229Z,64.18
2018-11-22T21:51:26.940Z,64.40
2018-11-22T21:53:55.304Z,64.00
2018-11-22T21:56:24.833Z,63.83
2018-11-22T21:58:52.535Z,63.68
2018-11-22T22:01:20.252Z,63.78
2018-11-22T22:03:48.608Z,63.40
2018-11-22T22:06:17.928Z,63.87
2018-11-22T22:08:46.901Z,63.58
2018-11-22T22:11:15.412Z,63.43
2018-11-22T22:13:43.172Z,63.40
2018-11-22T22:16:11.793Z,63.51
2018-11-22T22:18:40.145Z,64.10
2018-11-22T22:21:09.483Z,64.18
2018-11-22T22:23:38.838Z,64.42
2018-11-22T22:26:06.493Z,64.39
2018-11-22T22:28:34.178Z,64.94
2018-11-22T22:31:01.857Z,64.82
2018-11-22T22:33:30.160Z,64.39
2018-11-22T22:35:57.872Z,64.87
2018-11-22T22:38:25.591Z,64.28
2018-11-22T22:40:53.455Z,64.43
2018-11-22T22:43:21.203Z,64.41
2018-11-22T22:45:48.961Z,63.96
2018-11-22T22:48:16.715Z,64.63
2018-11-22T22:50:44.400Z,63.79
2018-11-22T22:53:12.097Z,64.27
2018-11-22T22:55:39.809Z,64.58
2018-11-22T22:58:08.094Z,64.06
2018-11-22T23:00:45.393Z,64.71
2018-11-22T23:03:13.071Z,64.95
2018-11-22T23:05:40.767Z,65.54
2018-11-22T23:08:08.531Z,65.37
2018-11-22T23:10:36.155Z,65.27
2018-11-22T23:13:05.147Z,65.79
2018-11-22T23:15:32.966Z,65.14
2018-11-22T23:18:00.680Z,66.14
2018-11-22T23:20:29.709Z,66.15
2018-11-22T23:22:57.483Z,65.41
2018-11-22T23:25:26.745Z,65.65
2018-11-22T23:27:54.477Z,65.31
2018-11-22T23:30:26.850Z,65.49
2018-11-22T23:32:56.478Z,64.90
2018-11-22T23:35:23.532Z,64.92
2018-11-22T23:37:52.135Z,65.60
2018-11-22T23:40:21.451Z,65.54
2018-11-22T23:45:24.943Z,66.05
2018-11-22T23:47:52.647Z,65.17
2018-11-22T23:50:22.723Z,64.88
2018-11-22T23:52:51.724Z,64.51
2018-11-22T23:55:19.596Z,64.76
2018-11-22T23:57:48.110Z,64.53
